Time;durP1;ratioP1;P1;durP2;ratioP2;P2;SDS_P1;SDS_P2;PMS_P1;PMS_P2;Temp;Humidity;BMP_temperature;BMP_pressure;BME280_temperature;BME280_humidity;BME280_pressure;Samples;Min_cycle;Max_cycle;Signal;HPM_P1;HPM_P2
2023/12/03 00:00:52;;;;;;;25.00;9.88;;;;;;;;;;5022336;28;20549;-45
2023/12/03 00:03:20;;;;;;;28.90;10.43;;;;;;;;;;5027385;28;20150;-43
2023/12/03 00:05:49;;;;;;;22.67;10.02;;;;;;;;;;5023655;28;20079;-44
2023/12/03 00:08:17;;;;;;;24.27;10.55;;;;;;;;;;5023573;28;20037;-44
2023/12/03 00:10:44;;;;;;;27.57;9.97;;;;;;;;;;5022960;28;20045;-43
2023/12/03 00:13:12;;;;;;;25.65;9.35;;;;;;;;;;5028737;28;20339;-44
2023/12/03 00:15:41;;;;;;;27.80;9.48;;;;;;;;;;5009840;28;20049;-43
2023/12/03 00:18:10;;;;;;;21.35;8.45;;;;;;;;;;5030892;28;20116;-43
2023/12/03 00:20:38;;;;;;;22.17;8.40;;;;;;;;;;5019287;28;20902;-43
2023/12/03 00:23:06;;;;;;;23.77;8.13;;;;;;;;;;5025116;28;20048;-43
2023/12/03 00:25:34;;;;;;;18.05;7.18;;;;;;;;;;5005921;28;20052;-43
2023/12/03 00:28:02;;;;;;;21.52;8.43;;;;;;;;;;5022837;28;20100;-43
2023/12/03 00:30:29;;;;;;;17.35;7.35;;;;;;;;;;5028237;28;20504;-43
2023/12/03 00:32:58;;;;;;;21.83;7.68;;;;;;;;;;5023225;28;20162;-44
2023/12/03 00:35:27;;;;;;;20.47;7.87;;;;;;;;;;5022691;28;20037;-44
2023/12/03 00:37:54;;;;;;;17.08;7.25;;;;;;;;;;5026216;28;20103;-43
2023/12/03 00:40:22;;;;;;;19.75;6.38;;;;;;;;;;5041031;28;20056;-44
2023/12/03 00:42:50;;;;;;;17.65;6.45;;;;;;;;;;5025791;28;20037;-43
2023/12/03 00:45:20;;;;;;;21.42;7.40;;;;;;;;;;5021322;28;20522;-45
2023/12/03 00:47:47;;;;;;;19.70;6.60;;;;;;;;;;5024925;28;20064;-44
2023/12/03 00:50:17;;;;;;;15.40;6.20;;;;;;;;;;5023196;28;20258;-44
2023/12/03 00:53:02;;;;;;;18.45;6.35;;;;;;;;;;5017284;28;20049;-43
2023/12/03 00:55:30;;;;;;;16.92;5.72;;;;;;;;;;5029171;28;20316;-44
2023/12/03 00:57:58;;;;;;;18.45;6.40;;;;;;;;;;5015249;28;20036;-44
2023/12/03 01:00:25;;;;;;;18.40;6.40;;;;;;;;;;5044092;28;20055;-45
2023/12/03 01:02:53;;;;;;;19.95;6.65;;;;;;;;;;5017472;28;20059;-45
2023/12/03 01:05:22;;;;;;;18.45;6.03;;;;;;;;;;5026209;28;20044;-45
2023/12/03 01:07:50;;;;;;;17.55;5.38;;;;;;;;;;5014506;28;20474;-45
2023/12/03 01:10:18;;;;;;;17.23;6.53;;;;;;;;;;5031381;28;20037;-44
2023/12/03 01:12:45;;;;;;;17.83;6.83;;;;;;;;;;5018186;28;20387;-43
2023/12/03 01:15:14;;;;;;;21.20;6.38;;;;;;;;;;5028310;28;20049;-44
2023/12/03 01:17:42;;;;;;;22.25;7.05;;;;;;;;;;5018193;28;20112;-44
2023/12/03 01:20:11;;;;;;;18.50;6.65;;;;;;;;;;5043473;28;20040;-44
2023/12/03 01:22:40;;;;;;;22.40;7.40;;;;;;;;;;5018717;28;20048;-43
2023/12/03 01:25:08;;;;;;;16.60;7.17;;;;;;;;;;5020343;28;20055;-44
2023/12/03 01:27:36;;;;;;;20.13;6.95;;;;;;;;;;5018038;28;20048;-44
2023/12/03 01:30:04;;;;;;;19.15;6.95;;;;;;;;;;5021058;28;20045;-44
2023/12/03 01:32:31;;;;;;;20.88;7.15;;;;;;;;;;5015724;28;20502;-43
2023/12/03 01:34:59;;;;;;;19.08;6.97;;;;;;;;;;5020295;28;20041;-43
2023/12/03 01:37:27;;;;;;;19.83;6.63;;;;;;;;;;5022281;28;20503;-43
2023/12/03 01:39:56;;;;;;;17.95;6.82;;;;;;;;;;5027419;28;20120;-44
2023/12/03 01:42:24;;;;;;;18.63;6.75;;;;;;;;;;5024630;28;20041;-44
2023/12/03 01:44:52;;;;;;;14.85;5.90;;;;;;;;;;5028226;28;20159;-43
2023/12/03 01:47:20;;;;;;;19.75;6.38;;;;;;;;;;5019769;28;20041;-44
2023/12/03 01:49:49;;;;;;;18.27;6.17;;;;;;;;;;5024544;28;20045;-43
2023/12/03 01:52:16;;;;;;;20.80;7.07;;;;;;;;;;5021007;28;20045;-43
2023/12/03 01:54:45;;;;;;;17.20;6.20;;;;;;;;;;5041557;28;20040;-43
2023/12/03 01:57:14;;;;;;;16.90;6.43;;;;;;;;;;5022506;28;20419;-43
2023/12/03 01:59:42;;;;;;;17.88;5.63;;;;;;;;;;5017919;28;20063;-43
2023/12/03 02:02:10;;;;;;;16.07;6.40;;;;;;;;;;5015602;28;20213;-44
2023/12/03 02:04:38;;;;;;;16.75;6.47;;;;;;;;;;5028144;28;20126;-44
2023/12/03 02:07:06;;;;;;;20.25;6.78;;;;;;;;;;5029372;28;20047;-43
2023/12/03 02:09:34;;;;;;;20.48;6.85;;;;;;;;;;5015733;28;20837;-44
2023/12/03 02:12:02;;;;;;;15.93;4.60;;;;;;;;;;5031438;28;20041;-44
2023/12/03 02:14:31;;;;;;;16.60;4.57;;;;;;;;;;5024789;28;20355;-44
2023/12/03 02:16:59;;;;;;;18.65;4.47;;;;;;;;;;5016923;28;20505;-43
2023/12/03 02:19:27;;;;;;;15.63;4.65;;;;;;;;;;5041167;28;20064;-44
2023/12/03 02:21:54;;;;;;;13.40;3.80;;;;;;;;;;5029931;28;20056;-43
2023/12/03 02:24:24;;;;;;;10.02;3.58;;;;;;;;;;4983713;28;20099;-44
2023/12/03 02:26:52;;;;;;;10.83;3.23;;;;;;;;;;5027823;28;20510;-43
2023/12/03 02:29:19;;;;;;;8.65;2.40;;;;;;;;;;5015688;28;20041;-43
2023/12/03 02:31:47;;;;;;;15.57;2.70;;;;;;;;;;5040338;28;20037;-44
2023/12/03 02:34:15;;;;;;;8.73;2.42;;;;;;;;;;4999572;28;20036;-44
2023/12/03 02:36:42;;;;;;;11.05;3.08;;;;;;;;;;5047565;28;20049;-43
2023/12/03 02:39:10;;;;;;;8.80;2.30;;;;;;;;;;5027775;28;20110;-44
2023/12/03 02:41:39;;;;;;;7.82;2.25;;;;;;;;;;5029581;28;20049;-44
2023/12/03 02:44:07;;;;;;;10.63;1.90;;;;;;;;;;5030438;28;20041;-44
2023/12/03 02:46:36;;;;;;;10.98;2.30;;;;;;;;;;5028308;28;20048;-45
2023/12/03 02:49:03;;;;;;;9.57;2.33;;;;;;;;;;5029798;28;20052;-44
2023/12/03 02:51:31;;;;;;;12.23;2.60;;;;;;;;;;5032117;28;20041;-44
2023/12/03 02:53:59;;;;;;;6.07;1.70;;;;;;;;;;5031172;28;20054;-44
2023/12/03 02:56:27;;;;;;;10.30;2.20;;;;;;;;;;5023058;28;20069;-43
2023/12/03 02:58:56;;;;;;;9.52;2.08;;;;;;;;;;5032705;28;20049;-46
2023/12/03 03:01:24;;;;;;;7.28;1.35;;;;;;;;;;5020042;28;20646;-44
2023/12/03 03:03:51;;;;;;;7.60;1.93;;;;;;;;;;5057579;28;20094;-44
2023/12/03 03:06:19;;;;;;;8.73;1.92;;;;;;;;;;5024925;28;20430;-44
2023/12/03 03:08:49;;;;;;;6.78;2.00;;;;;;;;;;5035010;28;20143;-44
2023/12/03 03:11:17;;;;;;;7.32;1.95;;;;;;;;;;5032793;28;20033;-44
2023/12/03 03:13:44;;;;;;;8.63;1.30;;;;;;;;;;5034194;28;20041;-44
2023/12/03 03:16:14;;;;;;;5.00;0.97;;;;;;;;;;5025044;28;20038;-43
2023/12/03 03:18:43;;;;;;;7.22;1.38;;;;;;;;;;5034611;28;20037;-44
2023/12/03 03:21:28;;;;;;;7.05;1.65;;;;;;;;;;5031306;28;20048;-44
2023/12/03 03:23:56;;;;;;;9.93;2.03;;;;;;;;;;5025946;28;20049;-46
2023/12/03 03:26:23;;;;;;;6.55;1.60;;;;;;;;;;5020903;28;20067;-44
2023/12/03 03:28:51;;;;;;;9.23;1.90;;;;;;;;;;5027692;28;20044;-44
2023/12/03 03:31:20;;;;;;;6.55;1.50;;;;;;;;;;5027150;28;20051;-45
2023/12/03 03:33:48;;;;;;;6.75;1.45;;;;;;;;;;5025290;28;20049;-43
2023/12/03 03:36:16;;;;;;;8.27;2.47;;;;;;;;;;5029895;28;20048;-45
2023/12/03 03:38:44;;;;;;;9.65;1.92;;;;;;;;;;5027500;28;20775;-44
2023/12/03 03:41:12;;;;;;;9.83;2.27;;;;;;;;;;5034649;28;20056;-44
2023/12/03 03:43:40;;;;;;;6.95;1.70;;;;;;;;;;5031530;28;20052;-44
2023/12/03 03:46:07;;;;;;;8.75;2.20;;;;;;;;;;5024476;28;20045;-44
2023/12/03 03:48:39;;;;;;;7.93;1.95;;;;;;;;;;5033213;28;22618;-48
2023/12/03 03:51:07;;;;;;;7.05;2.22;;;;;;;;;;5033982;28;20041;-44
2023/12/03 03:53:36;;;;;;;8.30;2.00;;;;;;;;;;5019329;28;20057;-45
2023/12/03 03:56:06;;;;;;;12.40;2.40;;;;;;;;;;5019026;28;20479;-43
2023/12/03 03:58:34;;;;;;;9.80;2.17;;;;;;;;;;5028619;28;20107;-44
2023/12/03 04:01:04;;;;;;;11.75;2.22;;;;;;;;;;5022790;28;20521;-45
2023/12/03 04:03:32;;;;;;;11.48;2.35;;;;;;;;;;5029834;28;20043;-43
2023/12/03 04:06:01;;;;;;;9.07;2.63;;;;;;;;;;5029092;28;20040;-44
2023/12/03 04:08:48;;;;;;;7.60;2.15;;;;;;;;;;5021892;28;20123;-43
2023/12/03 04:11:16;;;;;;;11.90;2.28;;;;;;;;;;5038635;28;20044;-44
2023/12/03 04:13:43;;;;;;;10.93;2.88;;;;;;;;;;5022296;28;20116;-45
2023/12/03 04:16:20;;;;;;;14.63;2.70;;;;;;;;;;5034261;28;20047;-44
2023/12/03 04:18:48;;;;;;;11.97;3.10;;;;;;;;;;5027634;28;20056;-44
2023/12/03 04:21:17;;;;;;;9.32;2.75;;;;;;;;;;5028014;28;20044;-44
2023/12/03 04:23:45;;;;;;;9.85;3.03;;;;;;;;;;5031151;28;20126;-43
2023/12/03 04:26:14;;;;;;;8.77;2.75;;;;;;;;;;5031172;28;20060;-43
2023/12/03 04:28:42;;;;;;;12.00;3.50;;;;;;;;;;5019780;28;20052;-43
2023/12/03 04:31:16;;;;;;;14.40;3.13;;;;;;;;;;5023626;28;20037;-44
2023/12/03 04:33:44;;;;;;;11.95;3.70;;;;;;;;;;5030404;28;20045;-45
2023/12/03 04:36:12;;;;;;;10.23;3.67;;;;;;;;;;5049133;28;20132;-45
2023/12/03 04:38:42;;;;;;;12.57;3.78;;;;;;;;;;5012526;28;20043;-47
2023/12/03 04:41:10;;;;;;;11.63;3.88;;;;;;;;;;5027325;28;20041;-44
2023/12/03 04:43:38;;;;;;;14.17;3.70;;;;;;;;;;5016709;28;20431;-46
2023/12/03 04:46:06;;;;;;;14.30;4.40;;;;;;;;;;5014798;28;20036;-44
2023/12/03 04:48:35;;;;;;;13.30;3.80;;;;;;;;;;5022797;28;20047;-46
2023/12/03 04:51:03;;;;;;;13.75;4.15;;;;;;;;;;5024655;28;20037;-44
2023/12/03 04:53:30;;;;;;;13.93;4.35;;;;;;;;;;5029830;28;20058;-44
2023/12/03 04:56:00;;;;;;;12.90;3.70;;;;;;;;;;5034096;28;20045;-44
2023/12/03 04:58:27;;;;;;;15.75;3.88;;;;;;;;;;5026915;28;20041;-45
2023/12/03 05:00:55;;;;;;;15.45;4.18;;;;;;;;;;5023789;28;20110;-44
2023/12/03 05:03:23;;;;;;;15.45;4.63;;;;;;;;;;5032311;28;20045;-45
2023/12/03 05:05:51;;;;;;;17.95;4.63;;;;;;;;;;5017968;28;20040;-44
2023/12/03 05:08:19;;;;;;;11.73;4.57;;;;;;;;;;5032061;28;20106;-44
2023/12/03 05:10:47;;;;;;;16.52;4.28;;;;;;;;;;5020220;28;21045;-43
2023/12/03 05:13:17;;;;;;;14.93;4.80;;;;;;;;;;5028565;28;20037;-44
2023/12/03 05:15:45;;;;;;;17.80;4.50;;;;;;;;;;5024290;28;20033;-43
2023/12/03 05:18:12;;;;;;;18.83;5.07;;;;;;;;;;5027323;28;20037;-43
2023/12/03 05:20:41;;;;;;;15.67;4.97;;;;;;;;;;5028124;28;20044;-44
2023/12/03 05:23:09;;;;;;;21.52;5.57;;;;;;;;;;5032847;28;20068;-43
2023/12/03 05:25:36;;;;;;;16.05;5.57;;;;;;;;;;5027610;28;20094;-43
2023/12/03 05:28:04;;;;;;;17.77;4.72;;;;;;;;;;5046354;28;20048;-44
2023/12/03 05:30:33;;;;;;;18.15;5.00;;;;;;;;;;5022825;28;20033;-44
2023/12/03 05:33:01;;;;;;;13.60;5.30;;;;;;;;;;5031743;28;20401;-43
2023/12/03 05:35:30;;;;;;;15.52;4.72;;;;;;;;;;5027891;28;20110;-45
2023/12/03 05:37:58;;;;;;;18.42;6.05;;;;;;;;;;5034164;28;20048;-44
2023/12/03 05:40:26;;;;;;;17.20;5.45;;;;;;;;;;5014626;28;20036;-44
2023/12/03 05:42:54;;;;;;;22.60;5.43;;;;;;;;;;5031505;28;20060;-43
2023/12/03 05:45:21;;;;;;;23.83;5.97;;;;;;;;;;5026454;28;20045;-44
2023/12/03 05:47:50;;;;;;;21.13;5.75;;;;;;;;;;5023619;28;20659;-44
2023/12/03 05:50:19;;;;;;;17.08;5.45;;;;;;;;;;5016953;28;20495;-45
2023/12/03 05:52:47;;;;;;;18.45;5.32;;;;;;;;;;5024357;28;20060;-43
2023/12/03 05:55:14;;;;;;;18.95;5.70;;;;;;;;;;5008592;28;20049;-43
2023/12/03 05:57:43;;;;;;;22.83;5.43;;;;;;;;;;5021885;28;20739;-43
2023/12/03 06:00:11;;;;;;;15.07;4.80;;;;;;;;;;5016209;28;22961;-43
2023/12/03 06:02:39;;;;;;;15.90;5.03;;;;;;;;;;5026014;28;20110;-44
2023/12/03 06:05:09;;;;;;;15.70;5.10;;;;;;;;;;5009863;28;20037;-43
2023/12/03 06:07:37;;;;;;;13.50;4.85;;;;;;;;;;5026228;28;20123;-43
2023/12/03 06:10:06;;;;;;;20.43;5.53;;;;;;;;;;5015443;28;20040;-43
2023/12/03 06:12:34;;;;;;;16.67;5.32;;;;;;;;;;5017054;28;20037;-44
2023/12/03 06:15:03;;;;;;;16.10;4.93;;;;;;;;;;5016108;28;20045;-44
2023/12/03 06:17:31;;;;;;;14.35;4.63;;;;;;;;;;5014312;28;20053;-43
2023/12/03 06:19:58;;;;;;;14.65;4.78;;;;;;;;;;5020238;28;20433;-43
2023/12/03 06:22:27;;;;;;;17.00;5.17;;;;;;;;;;5009148;28;20036;-43
2023/12/03 06:24:56;;;;;;;17.73;5.47;;;;;;;;;;5023549;28;20049;-44
2023/12/03 06:27:24;;;;;;;20.65;5.60;;;;;;;;;;5022991;28;20564;-43
2023/12/03 06:29:52;;;;;;;19.85;5.10;;;;;;;;;;5022582;28;20534;-43
2023/12/03 06:32:20;;;;;;;19.42;5.97;;;;;;;;;;5045337;28;20033;-44
2023/12/03 06:34:48;;;;;;;21.37;5.63;;;;;;;;;;5027934;28;20048;-43
2023/12/03 06:37:15;;;;;;;23.42;6.55;;;;;;;;;;5025057;28;20037;-44
2023/12/03 06:39:45;;;;;;;17.20;6.30;;;;;;;;;;5023513;28;20905;-43
2023/12/03 06:42:13;;;;;;;18.35;5.57;;;;;;;;;;5012572;28;20120;-44
2023/12/03 06:44:41;;;;;;;25.88;7.05;;;;;;;;;;5029271;28;20102;-44
2023/12/03 06:47:11;;;;;;;22.10;6.83;;;;;;;;;;5014349;28;20049;-44
2023/12/03 06:49:41;;;;;;;24.52;6.57;;;;;;;;;;5028116;28;20450;-43
2023/12/03 06:52:09;;;;;;;22.02;6.28;;;;;;;;;;5015035;28;20057;-45
2023/12/03 06:54:36;;;;;;;22.70;6.97;;;;;;;;;;5027246;28;20048;-45
2023/12/03 06:57:06;;;;;;;26.52;7.38;;;;;;;;;;5014700;28;20941;-46
2023/12/03 06:59:34;;;;;;;25.23;7.13;;;;;;;;;;5045857;28;20044;-44
2023/12/03 07:02:02;;;;;;;25.38;8.02;;;;;;;;;;5017711;28;20048;-44
2023/12/03 07:04:29;;;;;;;29.15;7.10;;;;;;;;;;5024537;28;20060;-43
2023/12/03 07:06:57;;;;;;;23.00;7.10;;;;;;;;;;5018858;28;20452;-43
2023/12/03 07:09:30;;;;;;;26.63;7.18;;;;;;;;;;5020670;28;20754;-43
2023/12/03 07:12:08;;;;;;;24.97;7.37;;;;;;;;;;5017549;28;20484;-44
2023/12/03 07:14:36;;;;;;;22.88;7.45;;;;;;;;;;5016447;28;20163;-44
2023/12/03 07:17:04;;;;;;;22.48;6.80;;;;;;;;;;5026139;28;20041;-43
2023/12/03 07:19:32;;;;;;;19.27;6.50;;;;;;;;;;5018739;28;20080;-43
2023/12/03 07:21:59;;;;;;;27.90;7.00;;;;;;;;;;5031197;28;20044;-43
2023/12/03 07:24:27;;;;;;;25.13;7.23;;;;;;;;;;5022307;28;20037;-43
2023/12/03 07:26:55;;;;;;;25.52;7.40;;;;;;;;;;5029528;28;20052;-43
2023/12/03 07:29:24;;;;;;;23.15;6.68;;;;;;;;;;5023151;28;20316;-43
2023/12/03 07:31:56;;;;;;;19.48;5.82;;;;;;;;;;5023232;28;20507;-45
2023/12/03 07:34:25;;;;;;;23.70;6.88;;;;;;;;;;5017519;28;20045;-43
2023/12/03 07:36:53;;;;;;;24.07;6.67;;;;;;;;;;5029924;28;20059;-44
2023/12/03 07:39:23;;;;;;;22.42;7.18;;;;;;;;;;5017716;28;20041;-44
2023/12/03 07:42:09;;;;;;;19.38;6.82;;;;;;;;;;5027997;28;20049;-44
2023/12/03 07:44:39;;;;;;;20.80;7.10;;;;;;;;;;5022389;28;20037;-43
2023/12/03 07:47:07;;;;;;;18.83;6.20;;;;;;;;;;5020735;28;20037;-47
2023/12/03 07:49:35;;;;;;;22.07;6.77;;;;;;;;;;5025092;28;20472;-43
2023/12/03 07:52:03;;;;;;;24.88;6.60;;;;;;;;;;5019939;28;20103;-43
2023/12/03 07:54:31;;;;;;;19.05;6.72;;;;;;;;;;5029903;28;20041;-43
2023/12/03 07:56:58;;;;;;;20.85;6.20;;;;;;;;;;5019978;28;20033;-44
2023/12/03 07:59:26;;;;;;;20.52;5.95;;;;;;;;;;5024853;28;20041;-43
2023/12/03 08:01:58;;;;;;;20.67;6.33;;;;;;;;;;5018510;28;20049;-43
2023/12/03 08:04:26;;;;;;;17.58;5.43;;;;;;;;;;5031604;28;20036;-45
2023/12/03 08:06:54;;;;;;;18.30;6.50;;;;;;;;;;5024153;28;20040;-43
2023/12/03 08:09:22;;;;;;;19.60;5.85;;;;;;;;;;5032437;28;20503;-44
2023/12/03 08:11:50;;;;;;;21.42;5.60;;;;;;;;;;5017645;28;20043;-43
2023/12/03 08:14:18;;;;;;;18.33;5.57;;;;;;;;;;5027373;28;20488;-43
2023/12/03 08:16:45;;;;;;;19.70;5.20;;;;;;;;;;5019883;28;20041;-43
2023/12/03 08:19:14;;;;;;;19.35;6.60;;;;;;;;;;5025942;28;20856;-44
2023/12/03 08:21:43;;;;;;;19.08;6.25;;;;;;;;;;5027333;28;20049;-42
2023/12/03 08:24:11;;;;;;;20.58;5.70;;;;;;;;;;5020577;28;20504;-44
2023/12/03 08:26:38;;;;;;;21.67;5.13;;;;;;;;;;5050258;28;20454;-43
2023/12/03 08:29:06;;;;;;;18.15;5.45;;;;;;;;;;5021434;28;20233;-43
2023/12/03 08:31:35;;;;;;;17.38;5.03;;;;;;;;;;5019633;28;20045;-43
2023/12/03 08:34:03;;;;;;;20.83;5.38;;;;;;;;;;5018138;28;20029;-44
2023/12/03 08:36:33;;;;;;;18.80;5.03;;;;;;;;;;5025416;28;20504;-43
2023/12/03 08:39:05;;;;;;;20.30;5.43;;;;;;;;;;5025344;28;20492;-43
2023/12/03 08:41:33;;;;;;;17.33;4.97;;;;;;;;;;5020326;28;20036;-43
2023/12/03 08:44:01;;;;;;;16.20;4.63;;;;;;;;;;5026276;28;20048;-44
2023/12/03 08:46:29;;;;;;;17.80;4.97;;;;;;;;;;5027900;28;20123;-44
2023/12/03 08:48:57;;;;;;;18.00;5.38;;;;;;;;;;5014010;28;20041;-44
2023/12/03 08:51:25;;;;;;;23.70;5.33;;;;;;;;;;5030160;28;20075;-43
2023/12/03 08:53:55;;;;;;;19.48;6.63;;;;;;;;;;5018874;28;20226;-43
2023/12/03 08:56:23;;;;;;;17.48;5.50;;;;;;;;;;5030392;28;20107;-45
2023/12/03 08:58:50;;;;;;;21.77;6.07;;;;;;;;;;5015479;28;20505;-46
2023/12/03 09:01:20;;;;;;;22.13;5.63;;;;;;;;;;5022019;28;20048;-43
2023/12/03 09:03:48;;;;;;;22.80;5.90;;;;;;;;;;5018843;28;20047;-47
2023/12/03 09:06:17;;;;;;;21.55;5.30;;;;;;;;;;5023146;28;20041;-44
2023/12/03 09:08:45;;;;;;;26.40;7.10;;;;;;;;;;5024467;28;21685;-43
2023/12/03 09:11:14;;;;;;;22.10;5.97;;;;;;;;;;5024621;28;21456;-44
2023/12/03 09:13:42;;;;;;;14.75;4.82;;;;;;;;;;5024963;28;20592;-43
2023/12/03 09:16:10;;;;;;;18.33;4.93;;;;;;;;;;5024014;28;20044;-44
2023/12/03 09:18:39;;;;;;;19.58;4.88;;;;;;;;;;5024381;28;20032;-43
2023/12/03 09:21:07;;;;;;;20.83;4.40;;;;;;;;;;5025552;28;20052;-43
2023/12/03 09:23:36;;;;;;;16.38;4.45;;;;;;;;;;5026814;28;20075;-45
2023/12/03 09:26:04;;;;;;;19.05;5.32;;;;;;;;;;5030224;28;20040;-44
2023/12/03 09:28:34;;;;;;;17.57;5.10;;;;;;;;;;5011693;28;20399;-44
2023/12/03 09:31:02;;;;;;;19.90;4.68;;;;;;;;;;5027432;28;20064;-45
2023/12/03 09:33:29;;;;;;;23.13;5.07;;;;;;;;;;5025371;28;20064;-43
2023/12/03 09:35:57;;;;;;;13.77;3.38;;;;;;;;;;5017838;28;20064;-43
2023/12/03 09:38:25;;;;;;;16.80;4.45;;;;;;;;;;5023412;28;20262;-42
2023/12/03 09:40:54;;;;;;;17.70;4.67;;;;;;;;;;4314910;28;10000490;-44
2023/12/03 09:43:21;;;;;;;15.23;4.43;;;;;;;;;;5026144;28;20072;-43
2023/12/03 09:45:51;;;;;;;16.58;4.20;;;;;;;;;;5018799;28;20514;-43
2023/12/03 09:48:20;;;;;;;15.37;4.17;;;;;;;;;;5024808;28;20127;-43
2023/12/03 09:50:49;;;;;;;18.35;4.25;;;;;;;;;;5012126;28;20044;-44
2023/12/03 09:53:18;;;;;;;11.55;4.28;;;;;;;;;;5024526;28;20053;-44
2023/12/03 09:55:47;;;;;;;12.18;4.50;;;;;;;;;;5013667;28;20561;-43
2023/12/03 09:58:15;;;;;;;14.65;3.92;;;;;;;;;;5030988;28;20056;-44
2023/12/03 10:00:43;;;;;;;15.33;4.20;;;;;;;;;;5017503;28;20053;-43
2023/12/03 10:03:13;;;;;;;16.88;4.45;;;;;;;;;;5024412;28;20193;-43
2023/12/03 10:05:42;;;;;;;18.55;5.10;;;;;;;;;;5018867;28;20041;-43
2023/12/03 10:08:10;;;;;;;16.33;4.47;;;;;;;;;;5019021;28;20033;-43
2023/12/03 10:10:41;;;;;;;16.63;4.38;;;;;;;;;;5014587;28;20037;-44
2023/12/03 10:13:11;;;;;;;19.30;4.40;;;;;;;;;;5022242;28;20418;-43
2023/12/03 10:15:39;;;;;;;14.27;4.75;;;;;;;;;;5023239;28;20047;-43
2023/12/03 10:18:07;;;;;;;17.92;4.20;;;;;;;;;;5025148;28;20037;-43
2023/12/03 10:20:39;;;;;;;13.65;3.80;;;;;;;;;;5020206;28;20499;-43
2023/12/03 10:23:13;;;;;;;13.07;4.18;;;;;;;;;;5026179;28;20602;-43
2023/12/03 10:25:41;;;;;;;12.60;3.60;;;;;;;;;;5017288;28;20043;-43
2023/12/03 10:28:10;;;;;;;13.00;3.22;;;;;;;;;;5027275;28;20048;-44
2023/12/03 10:30:38;;;;;;;14.85;3.20;;;;;;;;;;5018024;28;20794;-44
2023/12/03 10:33:06;;;;;;;11.27;3.35;;;;;;;;;;5027225;28;20052;-43
2023/12/03 10:35:35;;;;;;;14.38;3.00;;;;;;;;;;5014208;28;20045;-43
2023/12/03 10:38:08;;;;;;;11.27;3.17;;;;;;;;;;5026522;28;20118;-45
2023/12/03 10:40:36;;;;;;;10.95;2.97;;;;;;;;;;5010309;28;20040;-43
2023/12/03 10:43:05;;;;;;;12.85;3.30;;;;;;;;;;5019079;28;20052;-43
2023/12/03 10:45:32;;;;;;;13.48;3.58;;;;;;;;;;5019518;28;20783;-43
2023/12/03 10:48:01;;;;;;;13.73;3.55;;;;;;;;;;5018023;28;20052;-44
2023/12/03 10:50:29;;;;;;;16.10;3.90;;;;;;;;;;5020900;28;20120;-44
2023/12/03 10:52:59;;;;;;;13.60;3.47;;;;;;;;;;5019749;28;20057;-43
2023/12/03 10:55:29;;;;;;;10.63;2.97;;;;;;;;;;5018497;28;20033;-45
2023/12/03 10:58:00;;;;;;;11.45;3.60;;;;;;;;;;5019709;28;20047;-44
2023/12/03 11:00:31;;;;;;;12.55;3.13;;;;;;;;;;5020961;28;20041;-43
2023/12/03 11:03:02;;;;;;;15.70;4.23;;;;;;;;;;5021517;28;20554;-43
2023/12/03 11:05:32;;;;;;;12.57;3.65;;;;;;;;;;5025001;28;20045;-43
2023/12/03 11:08:00;;;;;;;9.07;2.70;;;;;;;;;;5021181;28;20061;-43
2023/12/03 11:10:29;;;;;;;15.55;3.03;;;;;;;;;;5027096;28;20037;-43
2023/12/03 11:13:00;;;;;;;12.02;3.10;;;;;;;;;;5022989;28;20130;-44
2023/12/03 11:15:28;;;;;;;9.17;3.50;;;;;;;;;;5026719;28;20054;-44
2023/12/03 11:17:56;;;;;;;9.68;2.85;;;;;;;;;;5028038;28;20090;-44
2023/12/03 11:20:29;;;;;;;11.10;3.40;;;;;;;;;;5024717;28;20072;-43
2023/12/03 11:23:08;;;;;;;10.73;3.03;;;;;;;;;;5025219;28;20127;-43
2023/12/03 11:25:41;;;;;;;8.27;2.55;;;;;;;;;;5032590;28;20040;-43
2023/12/03 11:28:10;;;;;;;14.23;3.57;;;;;;;;;;5013030;28;20044;-43
2023/12/03 11:30:37;;;;;;;14.30;4.15;;;;;;;;;;5025854;28;20051;-43
2023/12/03 11:33:07;;;;;;;14.45;4.50;;;;;;;;;;4676626;28;10000299;-43
2023/12/03 11:35:35;;;;;;;14.33;4.23;;;;;;;;;;5024697;28;20041;-45
2023/12/03 11:38:03;;;;;;;16.48;3.97;;;;;;;;;;5027562;28;20048;-44
2023/12/03 11:40:34;;;;;;;11.40;4.18;;;;;;;;;;5031316;28;20052;-46
2023/12/03 11:43:05;;;;;;;15.75;3.90;;;;;;;;;;5025959;28;20044;-44
2023/12/03 11:45:33;;;;;;;13.23;3.58;;;;;;;;;;5029307;28;20132;-45
2023/12/03 11:48:05;;;;;;;12.30;3.60;;;;;;;;;;5027818;28;20500;-45
2023/12/03 11:50:34;;;;;;;12.32;3.35;;;;;;;;;;5023518;28;20123;-46
2023/12/03 11:53:03;;;;;;;11.77;3.42;;;;;;;;;;5013617;28;20041;-45
2023/12/03 11:55:32;;;;;;;11.57;3.10;;;;;;;;;;5022610;28;21053;-43
2023/12/03 11:58:00;;;;;;;10.55;3.08;;;;;;;;;;4679122;28;10001039;-43
2023/12/03 12:00:30;;;;;;;10.27;2.60;;;;;;;;;;5018799;28;20036;-44
2023/12/03 12:02:58;;;;;;;10.85;3.28;;;;;;;;;;5032404;28;20040;-45
2023/12/03 12:05:25;;;;;;;11.85;3.33;;;;;;;;;;5017098;28;20037;-44
2023/12/03 12:07:58;;;;;;;13.95;2.92;;;;;;;;;;5028521;28;20114;-44
2023/12/03 12:10:27;;;;;;;9.57;2.67;;;;;;;;;;5014651;28;20040;-45
2023/12/03 12:12:56;;;;;;;15.37;3.33;;;;;;;;;;5029861;28;20049;-44
2023/12/03 12:15:23;;;;;;;13.77;3.90;;;;;;;;;;5006259;28;21273;-43
2023/12/03 12:17:53;;;;;;;11.77;2.88;;;;;;;;;;5026838;28;20056;-46
2023/12/03 12:20:24;;;;;;;17.02;3.42;;;;;;;;;;5043373;28;20049;-46
2023/12/03 12:22:54;;;;;;;11.07;3.80;;;;;;;;;;5018966;28;20643;-45
2023/12/03 12:25:22;;;;;;;17.33;3.43;;;;;;;;;;5025096;28;20049;-44
2023/12/03 12:27:52;;;;;;;11.75;3.78;;;;;;;;;;4330429;28;9999976;-46
2023/12/03 12:30:24;;;;;;;17.83;4.82;;;;;;;;;;5019493;28;20041;-45
2023/12/03 12:33:04;;;;;;;11.13;3.13;;;;;;;;;;5022343;28;20045;-46
2023/12/03 12:35:32;;;;;;;11.32;3.30;;;;;;;;;;5024569;28;20041;-46
2023/12/03 12:38:01;;;;;;;14.07;3.72;;;;;;;;;;5026441;28;20118;-43
2023/12/03 12:40:30;;;;;;;13.02;2.97;;;;;;;;;;5023519;28;20045;-44
2023/12/03 12:43:08;;;;;;;13.60;3.22;;;;;;;;;;5021350;28;20580;-44
2023/12/03 12:45:38;;;;;;;10.60;3.43;;;;;;;;;;5023250;28;20069;-46
2023/12/03 12:48:22;;;;;;;13.40;2.83;;;;;;;;;;5024939;28;20084;-46
2023/12/03 12:50:50;;;;;;;12.23;2.92;;;;;;;;;;5024812;28;20055;-49
2023/12/03 12:53:18;;;;;;;14.05;3.60;;;;;;;;;;5022306;28;20052;-49
2023/12/03 12:55:46;;;;;;;17.73;4.70;;;;;;;;;;5025048;28;20049;-44
2023/12/03 12:58:14;;;;;;;16.23;4.40;;;;;;;;;;5027682;28;20067;-43
2023/12/03 13:00:41;;;;;;;13.02;4.55;;;;;;;;;;5022481;28;20139;-44
2023/12/03 13:03:11;;;;;;;12.18;3.90;;;;;;;;;;5027715;28;20051;-43
2023/12/03 13:05:41;;;;;;;12.18;3.40;;;;;;;;;;5027344;28;20055;-44
2023/12/03 13:08:09;;;;;;;9.13;2.83;;;;;;;;;;5018817;28;20045;-43
2023/12/03 13:10:38;;;;;;;10.53;3.37;;;;;;;;;;5029323;28;20116;-44
2023/12/03 13:13:07;;;;;;;11.35;3.03;;;;;;;;;;5023689;28;20597;-45
2023/12/03 13:15:35;;;;;;;9.82;3.10;;;;;;;;;;5024161;28;20037;-45
2023/12/03 13:18:03;;;;;;;10.88;2.50;;;;;;;;;;5029772;28;20103;-44
2023/12/03 13:20:47;;;;;;;13.73;2.65;;;;;;;;;;5016115;28;20537;-44
2023/12/03 13:23:16;;;;;;;11.30;2.70;;;;;;;;;;5027389;28;20037;-44
2023/12/03 13:25:44;;;;;;;7.10;1.95;;;;;;;;;;5019144;28;20202;-44
2023/12/03 13:28:13;;;;;;;8.43;2.22;;;;;;;;;;5027838;28;20087;-45
2023/12/03 13:30:40;;;;;;;8.00;1.80;;;;;;;;;;5017814;28;20041;-44
2023/12/03 13:33:08;;;;;;;13.05;2.45;;;;;;;;;;5032391;28;20052;-44
2023/12/03 13:35:36;;;;;;;10.30;2.17;;;;;;;;;;5014106;28;20045;-44
2023/12/03 13:38:05;;;;;;;9.10;2.33;;;;;;;;;;5029918;28;20037;-44
2023/12/03 13:40:33;;;;;;;11.13;2.42;;;;;;;;;;5019662;28;20044;-44
2023/12/03 13:43:01;;;;;;;10.82;1.83;;;;;;;;;;5029084;28;20044;-44
2023/12/03 13:45:31;;;;;;;10.07;1.60;;;;;;;;;;5022094;28;20406;-44
2023/12/03 13:47:59;;;;;;;8.03;1.70;;;;;;;;;;5027661;28;20045;-43
2023/12/03 13:50:27;;;;;;;7.15;1.40;;;;;;;;;;5016121;28;20045;-46
2023/12/03 13:52:57;;;;;;;10.88;1.83;;;;;;;;;;5031186;28;20601;-45
2023/12/03 13:55:26;;;;;;;6.82;2.00;;;;;;;;;;5013491;28;20929;-44
2023/12/03 13:57:55;;;;;;;6.97;1.20;;;;;;;;;;5025891;28;20049;-44
2023/12/03 14:00:23;;;;;;;5.73;1.00;;;;;;;;;;5020131;28;20116;-43
2023/12/03 14:02:51;;;;;;;6.05;1.00;;;;;;;;;;5048611;28;20056;-44
2023/12/03 14:05:19;;;;;;;10.07;1.30;;;;;;;;;;5018223;28;20041;-45
2023/12/03 14:07:53;;;;;;;11.07;1.52;;;;;;;;;;5028430;28;20049;-43
2023/12/03 14:10:21;;;;;;;5.07;0.88;;;;;;;;;;4999243;28;20338;-43
2023/12/03 14:12:51;;;;;;;8.03;1.33;;;;;;;;;;5033083;28;20053;-44
2023/12/03 14:15:20;;;;;;;5.18;0.80;;;;;;;;;;5011867;28;20100;-45
2023/12/03 14:17:48;;;;;;;7.45;1.23;;;;;;;;;;5028337;28;20080;-44
2023/12/03 14:20:16;;;;;;;6.93;1.20;;;;;;;;;;4665009;28;10000379;-45
2023/12/03 14:22:44;;;;;;;7.05;1.00;;;;;;;;;;5024413;28;20059;-43
2023/12/03 14:25:12;;;;;;;5.35;0.63;;;;;;;;;;5016893;28;20041;-44
2023/12/03 14:27:40;;;;;;;5.53;1.10;;;;;;;;;;5041633;28;20500;-45
2023/12/03 14:30:10;;;;;;;5.63;1.30;;;;;;;;;;5012649;28;20041;-43
2023/12/03 14:32:38;;;;;;;6.47;1.10;;;;;;;;;;5025392;28;20056;-43
2023/12/03 14:35:08;;;;;;;8.57;1.80;;;;;;;;;;5009464;28;20099;-43
2023/12/03 14:37:36;;;;;;;5.00;1.00;;;;;;;;;;5026104;28;20033;-43
2023/12/03 14:40:05;;;;;;;8.57;1.00;;;;;;;;;;5012614;28;20106;-44